sensor_id;sensor_type;location;lat;lon;timestamp;pressure;altitude;pressure_sealevel;temperature;humidity
20105;BME280;10212;42.714;23.310;2023-03-14T00:04:54;95416.56;;;1.98;56.57
20105;BME280;10212;42.714;23.310;2023-03-14T00:14:56;95406.06;;;1.82;57.57
20105;BME280;10212;42.714;23.310;2023-03-14T00:24:56;95393.69;;;1.57;59.08
20105;BME280;10212;42.714;23.310;2023-03-14T00:34:56;95373.84;;;1.39;60.09
20105;BME280;10212;42.714;23.310;2023-03-14T00:44:56;95367.22;;;1.27;61.16
20105;BME280;10212;42.714;23.310;2023-03-14T00:54:57;95361.84;;;1.20;61.74
20105;BME280;10212;42.714;23.310;2023-03-14T01:04:57;95352.91;;;1.14;62.31
20105;BME280;10212;42.714;23.310;2023-03-14T01:14:58;95344.00;;;1.08;62.24
20105;BME280;10212;42.714;23.310;2023-03-14T01:24:58;95334.03;;;0.95;62.85
20105;BME280;10212;42.714;23.310;2023-03-14T01:34:58;95321.31;;;0.84;64.21
20105;BME280;10212;42.714;23.310;2023-03-14T01:45:00;95315.38;;;0.74;64.64
20105;BME280;10212;42.714;23.310;2023-03-14T01:55:06;95312.13;;;0.71;64.83
20105;BME280;10212;42.714;23.310;2023-03-14T02:05:07;95311.03;;;0.34;67.77
20105;BME280;10212;42.714;23.310;2023-03-14T02:15:09;95307.97;;;-0.10;70.91
20105;BME280;10212;42.714;23.310;2023-03-14T02:25:17;95300.94;;;-0.18;71.93
20105;BME280;10212;42.714;23.310;2023-03-14T02:35:26;95315.06;;;-0.34;73.04
20105;BME280;10212;42.714;23.310;2023-03-14T02:45:47;95318.13;;;-0.40;73.05
20105;BME280;10212;42.714;23.310;2023-03-14T02:55:48;95312.91;;;-0.60;75.06
20105;BME280;10212;42.714;23.310;2023-03-14T03:05:50;95313.00;;;-0.71;74.49
20105;BME280;10212;42.714;23.310;2023-03-14T03:15:51;95320.06;;;-0.85;75.60
20105;BME280;10212;42.714;23.310;2023-03-14T03:25:51;95313.56;;;-0.89;76.32
20105;BME280;10212;42.714;23.310;2023-03-14T03:35:51;95309.13;;;-0.87;76.29
20105;BME280;10212;42.714;23.310;2023-03-14T03:45:52;95311.25;;;-0.92;77.07
20105;BME280;10212;42.714;23.310;2023-03-14T03:55:52;95322.69;;;-0.97;76.76
20105;BME280;10212;42.714;23.310;2023-03-14T04:06:10;95314.69;;;-1.03;77.59
20105;BME280;10212;42.714;23.310;2023-03-14T04:16:16;95320.50;;;-1.01;77.56
20105;BME280;10212;42.714;23.310;2023-03-14T04:26:16;95297.59;;;-1.03;78.05
20105;BME280;10212;42.714;23.310;2023-03-14T04:36:17;95290.84;;;-1.04;78.21
20105;BME280;10212;42.714;23.310;2023-03-14T04:46:17;95281.69;;;-1.06;78.32
20105;BME280;10212;42.714;23.310;2023-03-14T04:56:17;95271.31;;;-1.05;77.72
20105;BME280;10212;42.714;23.310;2023-03-14T05:06:18;95268.59;;;-0.82;75.51
20105;BME280;10212;42.714;23.310;2023-03-14T05:16:19;95271.50;;;-0.65;74.80
20105;BME280;10212;42.714;23.310;2023-03-14T05:26:19;95260.75;;;-0.18;74.14
20105;BME280;10212;42.714;23.310;2023-03-14T05:36:19;95261.84;;;-0.01;72.55
20105;BME280;10212;42.714;23.310;2023-03-14T05:46:20;95266.16;;;0.09;71.80
20105;BME280;10212;42.714;23.310;2023-03-14T05:56:20;95267.66;;;0.11;72.76
20105;BME280;10212;42.714;23.310;2023-03-14T06:06:20;95261.03;;;0.09;71.70
20105;BME280;10212;42.714;23.310;2023-03-14T06:16:21;95259.44;;;0.28;71.74
20105;BME280;10212;42.714;23.310;2023-03-14T06:26:21;95266.72;;;0.62;71.20
20105;BME280;10212;42.714;23.310;2023-03-14T06:36:23;95248.75;;;0.92;70.11
20105;BME280;10212;42.714;23.310;2023-03-14T06:46:23;95254.66;;;1.40;68.09
20105;BME280;10212;42.714;23.310;2023-03-14T06:56:23;95227.06;;;1.42;67.23
20105;BME280;10212;42.714;23.310;2023-03-14T07:06:24;95221.38;;;1.95;66.69
20105;BME280;10212;42.714;23.310;2023-03-14T07:16:25;95214.75;;;2.11;65.18
20105;BME280;10212;42.714;23.310;2023-03-14T07:26:28;95213.34;;;2.53;63.66
20105;BME280;10212;42.714;23.310;2023-03-14T07:36:29;95199.34;;;2.74;61.89
20105;BME280;10212;42.714;23.310;2023-03-14T07:46:29;95195.34;;;3.06;60.30
20105;BME280;10212;42.714;23.310;2023-03-14T07:56:29;95194.97;;;3.28;59.12
20105;BME280;10212;42.714;23.310;2023-03-14T08:06:30;95181.41;;;3.60;56.53
20105;BME280;10212;42.714;23.310;2023-03-14T08:16:30;95176.31;;;4.02;55.65
20105;BME280;10212;42.714;23.310;2023-03-14T08:26:30;95168.44;;;4.37;53.56
20105;BME280;10212;42.714;23.310;2023-03-14T08:36:31;95148.69;;;4.78;51.47
20105;BME280;10212;42.714;23.310;2023-03-14T08:46:31;95136.81;;;5.09;49.92
20105;BME280;10212;42.714;23.310;2023-03-14T08:56:32;95116.88;;;5.58;49.06
20105;BME280;10212;42.714;23.310;2023-03-14T09:06:32;95099.28;;;6.00;46.22
20105;BME280;10212;42.714;23.310;2023-03-14T09:16:33;95077.59;;;6.63;46.42
20105;BME280;10212;42.714;23.310;2023-03-14T09:26:33;95058.66;;;7.15;45.01
20105;BME280;10212;42.714;23.310;2023-03-14T09:36:33;95034.97;;;7.55;44.22
20105;BME280;10212;42.714;23.310;2023-03-14T09:46:35;95016.38;;;8.02;43.23
20105;BME280;10212;42.714;23.310;2023-03-14T09:56:36;94991.91;;;8.47;42.67
20105;BME280;10212;42.714;23.310;2023-03-14T10:06:37;94976.63;;;9.28;39.56
20105;BME280;10212;42.714;23.310;2023-03-14T10:16:42;94953.84;;;9.77;39.51
20105;BME280;10212;42.714;23.310;2023-03-14T10:26:43;94936.53;;;10.17;38.68
20105;BME280;10212;42.714;23.310;2023-03-14T10:36:52;94906.63;;;10.33;38.21
20105;BME280;10212;42.714;23.310;2023-03-14T10:46:56;94877.81;;;10.74;38.96
20105;BME280;10212;42.714;23.310;2023-03-14T10:57:00;94855.28;;;11.19;40.01
20105;BME280;10212;42.714;23.310;2023-03-14T11:17:29;94798.38;;;12.28;37.88
20105;BME280;10212;42.714;23.310;2023-03-14T11:27:40;94762.00;;;12.27;37.54
20105;BME280;10212;42.714;23.310;2023-03-14T11:37:54;94746.97;;;12.65;37.20
20105;BME280;10212;42.714;23.310;2023-03-14T11:48:13;94717.44;;;12.76;36.48
20105;BME280;10212;42.714;23.310;2023-03-14T12:08:47;94686.03;;;13.12;35.27
20105;BME280;10212;42.714;23.310;2023-03-14T12:18:48;94661.75;;;13.53;35.39
20105;BME280;10212;42.714;23.310;2023-03-14T12:39:03;94618.56;;;14.14;33.33
20105;BME280;10212;42.714;23.310;2023-03-14T12:49:08;94602.34;;;14.17;32.72
20105;BME280;10212;42.714;23.310;2023-03-14T13:19:30;94539.63;;;14.67;31.33
20105;BME280;10212;42.714;23.310;2023-03-14T13:29:32;94519.38;;;14.63;31.07
20105;BME280;10212;42.714;23.310;2023-03-14T13:39:32;94503.19;;;14.71;30.71
20105;BME280;10212;42.714;23.310;2023-03-14T13:49:33;94477.97;;;14.87;30.91
20105;BME280;10212;42.714;23.310;2023-03-14T13:59:36;94466.66;;;14.87;29.39
20105;BME280;10212;42.714;23.310;2023-03-14T14:09:45;94438.59;;;14.87;30.01
20105;BME280;10212;42.714;23.310;2023-03-14T14:19:47;94426.50;;;14.86;29.98
20105;BME280;10212;42.714;23.310;2023-03-14T14:29:59;94397.78;;;14.79;29.71
20105;BME280;10212;42.714;23.310;2023-03-14T14:40:08;94388.91;;;15.08;29.55
20105;BME280;10212;42.714;23.310;2023-03-14T15:11:04;94354.06;;;14.40;31.07
20105;BME280;10212;42.714;23.310;2023-03-14T15:21:05;94339.75;;;14.03;31.28
20105;BME280;10212;42.714;23.310;2023-03-14T15:31:09;94335.72;;;13.56;32.04
20105;BME280;10212;42.714;23.310;2023-03-14T15:41:10;94320.31;;;13.08;32.99
20105;BME280;10212;42.714;23.310;2023-03-14T15:51:11;94322.41;;;12.59;34.38
20105;BME280;10212;42.714;23.310;2023-03-14T16:01:13;94338.47;;;12.10;35.56
20105;BME280;10212;42.714;23.310;2023-03-14T16:11:14;94337.34;;;11.45;36.08
20105;BME280;10212;42.714;23.310;2023-03-14T16:21:18;94336.81;;;10.89;36.97
20105;BME280;10212;42.714;23.310;2023-03-14T16:31:19;94354.28;;;10.38;37.55
20105;BME280;10212;42.714;23.310;2023-03-14T16:41:24;94360.47;;;9.88;38.82
20105;BME280;10212;42.714;23.310;2023-03-14T16:51:24;94364.25;;;9.48;39.49
20105;BME280;10212;42.714;23.310;2023-03-14T17:01:24;94361.97;;;9.07;41.38
20105;BME280;10212;42.714;23.310;2023-03-14T17:11:25;94361.63;;;8.64;42.57
20105;BME280;10212;42.714;23.310;2023-03-14T17:21:25;94365.34;;;8.36;43.30
20105;BME280;10212;42.714;23.310;2023-03-14T17:31:26;94364.41;;;8.10;44.04
20105;BME280;10212;42.714;23.310;2023-03-14T17:41:26;94355.28;;;7.87;44.99
20105;BME280;10212;42.714;23.310;2023-03-14T17:51:27;94355.78;;;7.57;45.54
20105;BME280;10212;42.714;23.310;2023-03-14T18:01:27;94359.78;;;7.39;46.08
20105;BME280;10212;42.714;23.310;2023-03-14T18:11:28;94361.56;;;7.18;46.64
20105;BME280;10212;42.714;23.310;2023-03-14T18:21:28;94370.34;;;7.04;46.11
20105;BME280;10212;42.714;23.310;2023-03-14T18:31:30;94390.63;;;6.86;47.21
20105;BME280;10212;42.714;23.310;2023-03-14T18:41:35;94379.66;;;6.71;48.14
20105;BME280;10212;42.714;23.310;2023-03-14T18:51:36;94385.97;;;6.55;47.91
20105;BME280;10212;42.714;23.310;2023-03-14T19:01:38;94383.56;;;6.39;48.77
20105;BME280;10212;42.714;23.310;2023-03-14T19:11:38;94369.59;;;6.34;47.77
20105;BME280;10212;42.714;23.310;2023-03-14T19:21:39;94373.94;;;6.26;47.87
20105;BME280;10212;42.714;23.310;2023-03-14T19:31:39;94378.91;;;6.21;48.86
20105;BME280;10212;42.714;23.310;2023-03-14T19:41:40;94370.97;;;6.30;49.55
20105;BME280;10212;42.714;23.310;2023-03-14T19:51:40;94376.16;;;6.30;49.81
20105;BME280;10212;42.714;23.310;2023-03-14T20:01:41;94375.53;;;6.27;50.46
20105;BME280;10212;42.714;23.310;2023-03-14T20:11:46;94372.69;;;6.15;51.84
20105;BME280;10212;42.714;23.310;2023-03-14T20:21:46;94346.69;;;5.95;52.86
20105;BME280;10212;42.714;23.310;2023-03-14T20:31:47;94338.28;;;5.79;53.74
20105;BME280;10212;42.714;23.310;2023-03-14T20:41:47;94337.81;;;5.69;54.60
20105;BME280;10212;42.714;23.310;2023-03-14T20:51:48;94336.97;;;5.62;55.23
20105;BME280;10212;42.714;23.310;2023-03-14T21:01:48;94328.16;;;5.49;56.36
20105;BME280;10212;42.714;23.310;2023-03-14T21:11:50;94328.50;;;5.39;57.46
20105;BME280;10212;42.714;23.310;2023-03-14T21:21:51;94311.72;;;5.28;58.66
20105;BME280;10212;42.714;23.310;2023-03-14T21:31:51;94318.44;;;5.23;59.26
20105;BME280;10212;42.714;23.310;2023-03-14T21:41:52;94333.91;;;5.16;59.87
20105;BME280;10212;42.714;23.310;2023-03-14T21:51:52;94316.19;;;5.13;59.81
20105;BME280;10212;42.714;23.310;2023-03-14T22:01:52;94309.16;;;5.06;59.89
20105;BME280;10212;42.714;23.310;2023-03-14T22:11:55;94289.69;;;5.04;59.44
20105;BME280;10212;42.714;23.310;2023-03-14T22:21:55;94281.69;;;4.99;58.59
20105;BME280;10212;42.714;23.310;2023-03-14T22:31:56;94256.25;;;5.02;57.54
20105;BME280;10212;42.714;23.310;2023-03-14T22:41:56;94258.03;;;4.95;57.52
20105;BME280;10212;42.714;23.310;2023-03-14T22:51:57;94248.22;;;4.90;56.38
20105;BME280;10212;42.714;23.310;2023-03-14T23:01:58;94242.28;;;4.90;55.79
20105;BME280;10212;42.714;23.310;2023-03-14T23:11:58;94239.94;;;4.95;54.38
20105;BME280;10212;42.714;23.310;2023-03-14T23:21:59;94221.00;;;4.88;53.23
20105;BME280;10212;42.714;23.310;2023-03-14T23:31:59;94236.63;;;4.79;52.28
20105;BME280;10212;42.714;23.310;2023-03-14T23:41:59;94229.41;;;4.68;52.05
20105;BME280;10212;42.714;23.310;2023-03-14T23:52:00;94228.16;;;4.64;51.96
